createdAt,value
2023-05-13T00:00:06.631Z,77.10
2023-05-13T00:02:33.211Z,77.32
2023-05-13T00:04:59.703Z,77.88
2023-05-13T00:07:26.299Z,77.40
2023-05-13T00:09:52.821Z,77.61
2023-05-13T00:12:19.333Z,76.15
2023-05-13T00:14:45.800Z,75.94
2023-05-13T00:17:12.380Z,77.59
2023-05-13T00:19:38.864Z,77.08
2023-05-13T00:22:05.370Z,77.67
2023-05-13T00:24:31.930Z,76.87
2023-05-13T00:26:58.681Z,76.54
2023-05-13T00:29:25.133Z,76.46
2023-05-13T00:31:51.796Z,77.11
2023-05-13T00:34:19.352Z,75.96
2023-05-13T00:36:45.878Z,76.88
2023-05-13T00:39:12.295Z,76.82
2023-05-13T00:41:39.020Z,76.55
2023-05-13T00:44:05.477Z,77.16
2023-05-13T00:46:35.320Z,76.55
2023-05-13T00:49:02.327Z,75.41
2023-05-13T00:51:28.834Z,74.89
2023-05-13T00:53:59.125Z,74.91
2023-05-13T00:56:26.433Z,75.33
2023-05-13T00:58:53.203Z,74.95
2023-05-13T01:01:43.891Z,75.42
2023-05-13T01:04:40.440Z,75.63
2023-05-13T01:07:26.747Z,76.47
2023-05-13T01:10:06.105Z,77.56
2023-05-13T01:12:41.240Z,77.96
2023-05-13T01:15:27.708Z,77.38
2023-05-13T01:18:12.021Z,78.09
2023-05-13T01:20:42.303Z,78.12
2023-05-13T01:23:10.698Z,78.23
2023-05-13T01:25:37.997Z,78.07
2023-05-13T01:28:05.190Z,78.49
2023-05-13T01:30:31.780Z,78.53
2023-05-13T01:32:59.127Z,77.41
2023-05-13T01:35:27.915Z,77.57
2023-05-13T01:37:57.228Z,76.45
2023-05-13T01:40:32.230Z,76.63
2023-05-13T01:42:59.596Z,76.77
2023-05-13T01:45:30.224Z,77.54
2023-05-13T01:47:56.789Z,77.45
2023-05-13T01:50:23.638Z,76.92
2023-05-13T01:52:50.278Z,77.38
2023-05-13T01:55:16.836Z,77.60
2023-05-13T01:57:43.260Z,78.24
2023-05-13T02:00:10.598Z,77.82
2023-05-13T02:02:37.098Z,78.56
2023-05-13T02:05:03.767Z,77.38
2023-05-13T02:07:30.274Z,78.26
2023-05-13T02:09:59.803Z,78.75
2023-05-13T02:12:27.214Z,77.44
2023-05-13T02:14:54.681Z,77.40
2023-05-13T02:17:22.483Z,78.33
2023-05-13T02:19:49.194Z,77.50
2023-05-13T02:22:16.271Z,77.41
2023-05-13T02:24:42.925Z,77.71
2023-05-13T02:27:12.517Z,78.20
2023-05-13T02:29:39.233Z,78.00
2023-05-13T02:32:06.422Z,78.26
2023-05-13T02:34:32.975Z,77.81
2023-05-13T02:36:59.415Z,77.80
2023-05-13T02:39:25.842Z,78.53
2023-05-13T02:41:52.307Z,78.20
2023-05-13T02:44:18.746Z,77.89
2023-05-13T02:46:45.326Z,78.00
2023-05-13T02:49:12.076Z,78.35
2023-05-13T02:51:38.601Z,78.62
2023-05-13T02:54:05.338Z,78.64
2023-05-13T02:56:31.818Z,79.45
2023-05-13T02:58:58.305Z,78.74
2023-05-13T03:01:26.657Z,80.24
2023-05-13T03:03:53.224Z,79.49
2023-05-13T03:06:19.735Z,80.19
2023-05-13T03:08:46.180Z,79.31
2023-05-13T03:11:12.653Z,80.50
2023-05-13T03:13:39.104Z,80.09
2023-05-13T03:16:05.742Z,80.57
2023-05-13T03:18:32.868Z,80.72
2023-05-13T03:20:59.522Z,80.75
2023-05-13T03:23:26.019Z,81.74
2023-05-13T03:25:52.512Z,82.24
2023-05-13T03:28:19.017Z,81.57
2023-05-13T03:30:45.674Z,82.25
2023-05-13T03:33:12.136Z,81.82
2023-05-13T03:35:38.829Z,82.91
2023-05-13T03:38:05.291Z,83.02
2023-05-13T03:40:31.726Z,82.90
2023-05-13T03:42:58.174Z,83.28
2023-05-13T03:45:24.696Z,83.94
2023-05-13T03:47:51.285Z,83.26
2023-05-13T03:50:17.803Z,84.08
2023-05-13T03:52:46.862Z,84.30
2023-05-13T03:55:14.956Z,85.24
2023-05-13T03:57:48.077Z,85.14
2023-05-13T04:00:15.438Z,85.04
2023-05-13T04:02:42.156Z,84.97
2023-05-13T04:05:09.541Z,85.83
2023-05-13T04:07:36.158Z,85.36
2023-05-13T04:10:02.638Z,85.55
2023-05-13T04:12:30.841Z,86.39
2023-05-13T04:14:57.423Z,86.19
2023-05-13T04:17:24.016Z,86.17
2023-05-13T04:19:53.951Z,86.43
2023-05-13T04:22:21.772Z,86.61
2023-05-13T04:24:50.160Z,87.04
2023-05-13T04:27:16.626Z,86.92
2023-05-13T04:29:43.087Z,86.75
2023-05-13T04:32:09.648Z,87.09
2023-05-13T04:34:36.268Z,87.20
2023-05-13T04:37:02.695Z,87.10
2023-05-13T04:39:29.270Z,87.05
2023-05-13T04:41:55.708Z,87.67
2023-05-13T04:44:22.111Z,87.23
2023-05-13T04:46:48.671Z,87.80
2023-05-13T04:49:15.373Z,87.60
2023-05-13T04:51:42.353Z,87.59
2023-05-13T04:54:08.989Z,87.95
2023-05-13T04:56:35.521Z,88.36
2023-05-13T04:59:01.932Z,88.26
2023-05-13T05:01:28.481Z,87.75
2023-05-13T05:03:54.990Z,88.42
2023-05-13T05:06:21.928Z,87.96
2023-05-13T05:08:48.454Z,88.02
2023-05-13T05:11:14.969Z,88.45
2023-05-13T05:13:41.446Z,87.88
2023-05-13T05:16:08.909Z,87.40
2023-05-13T05:18:38.262Z,87.48
2023-05-13T05:21:04.906Z,87.86
2023-05-13T05:23:31.440Z,88.10
2023-05-13T05:26:08.348Z,87.72
2023-05-13T05:28:39.871Z,87.57
2023-05-13T05:31:06.650Z,88.02
2023-05-13T05:33:33.226Z,87.79
2023-05-13T05:35:59.704Z,88.03
2023-05-13T05:38:26.216Z,87.64
2023-05-13T05:40:52.950Z,87.98
2023-05-13T05:43:19.748Z,87.87
2023-05-13T05:45:46.450Z,87.42
2023-05-13T05:48:14.047Z,87.98
2023-05-13T05:50:41.258Z,86.98
2023-05-13T05:53:07.857Z,87.26
2023-05-13T05:55:34.420Z,87.03
2023-05-13T05:58:05.444Z,86.73
2023-05-13T06:00:33.167Z,86.02
2023-05-13T06:02:59.887Z,87.00
2023-05-13T06:05:26.514Z,86.30
2023-05-13T06:07:52.972Z,86.35
2023-05-13T06:10:19.667Z,86.04
2023-05-13T06:12:46.307Z,85.99
2023-05-13T06:15:12.827Z,86.42
2023-05-13T06:17:39.910Z,85.57
2023-05-13T06:20:07.125Z,85.81
2023-05-13T06:22:33.695Z,85.99
2023-05-13T06:25:00.241Z,85.72
2023-05-13T06:27:26.880Z,85.48
2023-05-13T06:29:53.520Z,85.94
2023-05-13T06:32:20.027Z,85.65
2023-05-13T06:34:46.857Z,85.96
2023-05-13T06:37:13.675Z,85.45
2023-05-13T06:39:40.529Z,85.80
2023-05-13T06:42:07.164Z,85.45
2023-05-13T06:44:33.688Z,84.87
2023-05-13T06:47:02.833Z,84.69
2023-05-13T06:49:29.449Z,85.16
2023-05-13T06:51:56.521Z,84.96
2023-05-13T06:54:23.284Z,84.44
2023-05-13T06:56:49.857Z,84.45
2023-05-13T06:59:16.472Z,84.13
2023-05-13T07:01:42.998Z,83.10
2023-05-13T07:04:09.590Z,83.89
2023-05-13T07:06:36.182Z,83.29
2023-05-13T07:09:07.929Z,81.93
2023-05-13T07:11:37.928Z,81.81
2023-05-13T07:14:04.371Z,82.12
2023-05-13T07:16:30.865Z,81.81
2023-05-13T07:18:57.326Z,81.31
2023-05-13T07:21:23.816Z,80.48
2023-05-13T07:23:50.317Z,80.90
2023-05-13T07:26:16.839Z,79.92
2023-05-13T07:28:43.674Z,79.85
2023-05-13T07:31:10.310Z,78.31
2023-05-13T07:33:36.859Z,78.86
2023-05-13T07:36:03.527Z,79.30
2023-05-13T07:38:30.013Z,78.49
2023-05-13T07:40:56.525Z,78.64
2023-05-13T07:43:23.972Z,77.48
2023-05-13T07:45:51.398Z,75.91
2023-05-13T07:48:18.633Z,76.42
2023-05-13T07:50:46.059Z,75.98
2023-05-13T07:53:12.621Z,76.19
2023-05-13T07:55:39.244Z,77.30
2023-05-13T07:58:06.472Z,74.53
2023-05-13T08:00:33.028Z,75.65
2023-05-13T08:02:59.610Z,76.63
2023-05-13T08:05:26.268Z,73.88
2023-05-13T08:07:52.763Z,73.51
2023-05-13T08:10:19.227Z,73.73
2023-05-13T08:12:50.920Z,72.03
2023-05-13T08:15:17.618Z,73.30
2023-05-13T08:17:44.116Z,73.34
2023-05-13T08:20:11.517Z,72.42
2023-05-13T08:22:38.112Z,73.62
2023-05-13T08:25:05.550Z,72.47
2023-05-13T08:27:32.210Z,73.10
2023-05-13T08:29:58.710Z,70.26
2023-05-13T08:32:25.405Z,69.52
2023-05-13T08:34:51.875Z,69.15
2023-05-13T08:37:18.386Z,68.92
2023-05-13T08:39:44.893Z,68.37
2023-05-13T08:42:11.606Z,70.28
2023-05-13T08:44:43.527Z,67.14
2023-05-13T08:47:33.321Z,67.26
2023-05-13T08:50:01.356Z,67.87
2023-05-13T08:52:28.360Z,67.58
2023-05-13T08:54:58.843Z,66.68
2023-05-13T08:57:25.391Z,67.70
2023-05-13T08:59:51.918Z,67.76
2023-05-13T09:02:18.739Z,67.83
2023-05-13T09:04:46.829Z,66.11
2023-05-13T09:07:13.344Z,68.07
2023-05-13T09:09:40.088Z,64.37
2023-05-13T09:12:07.671Z,65.61
2023-05-13T09:14:34.340Z,63.56
2023-05-13T09:17:04.830Z,64.60
2023-05-13T09:19:31.412Z,64.06
2023-05-13T09:21:58.405Z,67.04
2023-05-13T09:24:25.020Z,63.63
2023-05-13T09:26:51.947Z,66.43
2023-05-13T09:29:29.134Z,64.72
2023-05-13T09:31:58.123Z,61.06
2023-05-13T09:34:32.614Z,62.58
2023-05-13T09:37:07.036Z,62.70
2023-05-13T09:39:39.331Z,62.15
2023-05-13T09:42:06.249Z,62.06
2023-05-13T09:44:33.947Z,65.10
2023-05-13T09:47:02.633Z,61.08
2023-05-13T09:49:31.591Z,60.65
2023-05-13T09:51:58.174Z,61.14
2023-05-13T09:54:25.467Z,62.81
2023-05-13T09:56:58.671Z,60.73
2023-05-13T09:59:25.140Z,60.27
2023-05-13T10:01:53.688Z,60.19
2023-05-13T10:04:20.459Z,61.75
2023-05-13T10:06:49.020Z,60.94
2023-05-13T10:09:17.211Z,59.80
2023-05-13T10:11:47.957Z,59.51
2023-05-13T10:14:15.341Z,61.40
2023-05-13T10:16:42.005Z,61.04
2023-05-13T10:19:09.270Z,59.34
2023-05-13T10:21:37.090Z,59.52
2023-05-13T10:24:05.188Z,58.44
2023-05-13T10:26:32.417Z,58.33
2023-05-13T10:28:59.690Z,58.88
2023-05-13T10:31:27.386Z,61.47
2023-05-13T10:33:54.137Z,58.02
2023-05-13T10:36:38.670Z,58.52
2023-05-13T10:39:37.538Z,58.61
2023-05-13T10:42:12.871Z,60.43
2023-05-13T10:44:39.500Z,58.63
2023-05-13T10:47:09.486Z,58.21
2023-05-13T10:49:36.328Z,58.56
2023-05-13T10:52:07.920Z,58.42
2023-05-13T10:54:42.025Z,57.86
2023-05-13T10:57:09.348Z,59.54
2023-05-13T10:59:37.204Z,58.28
2023-05-13T11:02:24.070Z,58.80
2023-05-13T11:05:00.851Z,59.02
2023-05-13T11:07:30.793Z,57.81
2023-05-13T11:09:57.302Z,56.57
2023-05-13T11:12:23.855Z,55.37
2023-05-13T11:14:50.540Z,57.20
2023-05-13T11:17:20.772Z,56.66
2023-05-13T11:19:49.887Z,54.83
2023-05-13T11:22:20.372Z,55.58
2023-05-13T11:25:05.499Z,56.53
2023-05-13T11:27:39.686Z,55.85
2023-05-13T11:30:30.704Z,54.83
2023-05-13T11:32:59.003Z,54.18
2023-05-13T11:35:30.435Z,53.62
2023-05-13T11:38:01.538Z,52.75
2023-05-13T11:40:30.567Z,53.90
2023-05-13T11:42:58.027Z,54.28
2023-05-13T11:45:26.438Z,51.83
2023-05-13T11:47:54.140Z,50.26
2023-05-13T11:50:30.099Z,50.35
2023-05-13T11:52:58.542Z,49.21
2023-05-13T11:55:34.474Z,49.01
2023-05-13T11:58:01.004Z,50.02
2023-05-13T12:00:32.320Z,48.28
2023-05-13T12:03:00.648Z,49.16
2023-05-13T12:05:27.757Z,48.14
2023-05-13T12:07:58.606Z,47.13
2023-05-13T12:10:26.244Z,49.43
2023-05-13T12:12:53.323Z,48.39
2023-05-13T12:15:21.625Z,48.81
2023-05-13T12:17:51.984Z,46.81
2023-05-13T12:20:20.826Z,46.06
2023-05-13T12:22:47.349Z,45.56
2023-05-13T12:25:38.560Z,47.21
2023-05-13T12:28:09.086Z,43.86
2023-05-13T12:30:40.005Z,45.32
2023-05-13T12:33:12.518Z,42.11
2023-05-13T12:35:39.014Z,41.64
2023-05-13T12:38:05.681Z,42.16
2023-05-13T12:40:32.596Z,43.21
2023-05-13T12:43:00.779Z,44.07
2023-05-13T12:45:32.479Z,45.41
2023-05-13T12:48:00.552Z,44.51
2023-05-13T12:50:27.498Z,43.87
2023-05-13T12:52:54.370Z,42.19
2023-05-13T12:55:21.342Z,41.34
2023-05-13T12:58:00.162Z,41.47
2023-05-13T13:00:27.344Z,41.64
2023-05-13T13:02:54.281Z,41.10
2023-05-13T13:05:22.086Z,40.43
2023-05-13T13:07:49.011Z,37.31
2023-05-13T13:10:15.627Z,39.46
2023-05-13T13:12:42.517Z,36.58
2023-05-13T13:15:10.526Z,36.33
2023-05-13T13:17:37.295Z,37.63
2023-05-13T13:20:05.002Z,36.32
2023-05-13T13:22:31.728Z,37.84
2023-05-13T13:24:58.255Z,36.42
2023-05-13T13:27:24.773Z,36.40
2023-05-13T13:29:51.212Z,37.74
2023-05-13T13:32:17.873Z,37.15
2023-05-13T13:34:44.502Z,34.94
2023-05-13T13:37:11.077Z,35.62
2023-05-13T13:39:37.518Z,36.99
2023-05-13T13:42:04.680Z,36.62
2023-05-13T13:44:31.815Z,35.14
2023-05-13T13:46:59.114Z,33.92
2023-05-13T13:49:25.806Z,35.18
2023-05-13T13:51:53.079Z,36.78
2023-05-13T13:54:20.020Z,36.47
2023-05-13T13:56:47.775Z,37.87
2023-05-13T13:59:14.303Z,36.92
2023-05-13T14:01:40.772Z,37.12
2023-05-13T14:04:27.758Z,34.79
2023-05-13T14:06:57.628Z,34.46
2023-05-13T14:09:24.319Z,35.24
2023-05-13T14:11:51.330Z,35.86
2023-05-13T14:14:17.805Z,34.27
2023-05-13T14:16:44.520Z,35.35
2023-05-13T14:19:11.750Z,34.31
2023-05-13T14:21:38.291Z,35.78
2023-05-13T14:24:05.078Z,34.65
2023-05-13T14:26:31.759Z,34.58
2023-05-13T14:28:58.292Z,34.60
2023-05-13T14:31:24.875Z,33.03
2023-05-13T14:33:51.426Z,33.02
2023-05-13T14:36:20.300Z,34.45
2023-05-13T14:38:46.792Z,33.16
2023-05-13T14:41:19.617Z,34.04
2023-05-13T14:43:46.860Z,33.50
2023-05-13T14:46:13.676Z,34.01
2023-05-13T14:48:40.204Z,34.57
2023-05-13T14:51:06.762Z,34.26
2023-05-13T14:53:33.334Z,32.91
2023-05-13T14:55:59.975Z,33.36
2023-05-13T14:58:26.932Z,34.70
2023-05-13T15:00:53.720Z,34.77
2023-05-13T15:03:20.208Z,35.93
2023-05-13T15:05:47.097Z,34.97
2023-05-13T15:08:13.602Z,34.19
2023-05-13T15:10:40.058Z,34.52
2023-05-13T15:13:06.522Z,34.85
2023-05-13T15:15:33.618Z,34.96
2023-05-13T15:18:00.172Z,35.59
2023-05-13T15:20:28.492Z,34.42
2023-05-13T15:22:55.579Z,34.88
2023-05-13T15:25:22.024Z,35.11
2023-05-13T15:27:50.518Z,35.06
2023-05-13T15:30:17.133Z,35.61
2023-05-13T15:32:43.750Z,35.19
2023-05-13T15:35:10.248Z,34.81
2023-05-13T15:37:37.307Z,37.80
2023-05-13T15:40:04.017Z,34.48
2023-05-13T15:42:30.694Z,34.12
2023-05-13T15:44:57.472Z,33.27
2023-05-13T15:47:24.108Z,34.29
2023-05-13T15:49:51.272Z,35.07
2023-05-13T15:52:17.729Z,34.75
2023-05-13T15:54:44.253Z,33.88
2023-05-13T15:57:10.719Z,34.42
2023-05-13T15:59:37.240Z,34.76
2023-05-13T16:02:03.933Z,35.14
2023-05-13T16:04:30.673Z,36.00
2023-05-13T16:06:57.184Z,36.34
2023-05-13T16:09:23.637Z,33.93
2023-05-13T16:11:50.184Z,35.10
2023-05-13T16:14:18.237Z,34.99
2023-05-13T16:16:45.980Z,34.88
2023-05-13T16:19:13.039Z,35.39
2023-05-13T16:21:42.468Z,35.94
2023-05-13T16:24:09.025Z,35.06
2023-05-13T16:26:35.514Z,35.61
2023-05-13T16:29:02.086Z,34.93
2023-05-13T16:31:28.620Z,35.43
2023-05-13T16:33:55.149Z,35.31
2023-05-13T16:36:21.774Z,36.65
2023-05-13T16:38:48.463Z,39.68
2023-05-13T16:41:15.104Z,40.62
2023-05-13T16:43:41.582Z,42.23
2023-05-13T16:46:08.020Z,42.10
2023-05-13T16:48:34.555Z,43.15
2023-05-13T16:51:01.100Z,44.20
2023-05-13T16:53:27.632Z,44.71
2023-05-13T16:55:54.163Z,43.59
2023-05-13T16:58:20.687Z,44.02
2023-05-13T17:00:47.261Z,44.50
2023-05-13T17:03:13.918Z,44.57
2023-05-13T17:05:40.594Z,44.82
2023-05-13T17:08:07.138Z,46.54
2023-05-13T17:10:33.629Z,47.18
2023-05-13T17:13:00.137Z,47.96
2023-05-13T17:15:26.659Z,48.10
2023-05-13T17:17:53.143Z,48.59
2023-05-13T17:20:20.561Z,49.29
2023-05-13T17:22:47.524Z,49.45
2023-05-13T17:25:14.917Z,49.49
2023-05-13T17:27:41.478Z,50.32
2023-05-13T17:30:08.820Z,51.33
2023-05-13T17:32:35.762Z,50.22
2023-05-13T17:35:03.405Z,51.67
2023-05-13T17:37:30.086Z,51.97
2023-05-13T17:40:00.605Z,50.65
2023-05-13T17:42:28.906Z,51.15
2023-05-13T17:44:55.486Z,51.00
2023-05-13T17:47:22.064Z,50.82
2023-05-13T17:49:48.571Z,52.08
2023-05-13T17:52:15.027Z,53.17
2023-05-13T17:54:41.555Z,54.12
2023-05-13T17:57:10.293Z,54.50
2023-05-13T17:59:37.148Z,54.92
2023-05-13T18:02:03.791Z,55.22
2023-05-13T18:04:30.355Z,55.80
2023-05-13T18:06:56.886Z,56.22
2023-05-13T18:09:23.350Z,56.63
2023-05-13T18:11:49.847Z,57.70
2023-05-13T18:14:16.353Z,57.89
2023-05-13T18:16:42.978Z,58.60
2023-05-13T18:19:09.532Z,58.84
2023-05-13T18:21:36.116Z,58.74
2023-05-13T18:24:02.551Z,59.27
2023-05-13T18:26:29.094Z,59.50
2023-05-13T18:28:55.534Z,60.08
2023-05-13T18:31:22.012Z,60.04
2023-05-13T18:33:48.572Z,60.03
2023-05-13T18:36:15.223Z,61.34
2023-05-13T18:38:41.784Z,60.06
2023-05-13T18:41:08.325Z,60.32
2023-05-13T18:43:34.892Z,60.85
2023-05-13T18:46:01.474Z,60.58
2023-05-13T18:48:28.025Z,60.73
2023-05-13T18:50:54.542Z,61.42
2023-05-13T18:53:21.241Z,61.36
2023-05-13T18:55:47.715Z,61.66
2023-05-13T18:58:14.159Z,62.26
2023-05-13T19:00:40.819Z,62.55
2023-05-13T19:03:07.439Z,62.50
2023-05-13T19:05:34.236Z,63.00
2023-05-13T19:08:00.799Z,63.11
2023-05-13T19:10:27.687Z,62.75
2023-05-13T19:12:54.130Z,63.06
2023-05-13T19:15:25.170Z,62.45
2023-05-13T19:17:52.973Z,63.91
2023-05-13T19:20:19.515Z,63.76
2023-05-13T19:22:46.715Z,64.07
2023-05-13T19:25:13.203Z,63.83
2023-05-13T19:27:39.777Z,64.60
2023-05-13T19:30:07.320Z,64.49
2023-05-13T19:32:33.919Z,65.10
2023-05-13T19:35:03.853Z,64.91
2023-05-13T19:37:31.055Z,64.90
2023-05-13T19:39:57.601Z,64.98
2023-05-13T19:42:24.307Z,65.03
2023-05-13T19:44:51.046Z,65.45
2023-05-13T19:47:17.675Z,65.04
2023-05-13T19:49:44.624Z,64.93
2023-05-13T19:52:11.390Z,64.79
2023-05-13T19:54:37.857Z,65.87
2023-05-13T19:57:04.770Z,64.89
2023-05-13T19:59:31.280Z,65.60
2023-05-13T20:01:57.753Z,65.80
2023-05-13T20:04:24.242Z,65.20
2023-05-13T20:06:50.722Z,65.97
2023-05-13T20:09:17.179Z,66.50
2023-05-13T20:11:44.183Z,67.03
2023-05-13T20:14:12.414Z,67.14
2023-05-13T20:16:39.036Z,67.20
2023-05-13T20:19:05.749Z,67.02
2023-05-13T20:21:32.223Z,68.14
2023-05-13T20:23:58.725Z,69.29
2023-05-13T20:26:25.811Z,69.22
2023-05-13T20:28:52.402Z,70.04
2023-05-13T20:31:18.960Z,69.68
2023-05-13T20:33:45.693Z,69.92
2023-05-13T20:36:12.137Z,69.88
2023-05-13T20:38:38.610Z,70.19
2023-05-13T20:41:05.517Z,70.02
2023-05-13T20:43:35.335Z,70.15
2023-05-13T20:46:03.062Z,70.29
2023-05-13T20:48:31.935Z,70.06
2023-05-13T20:50:59.521Z,70.64
2023-05-13T20:53:26.144Z,70.47
2023-05-13T20:55:52.624Z,69.93
2023-05-13T20:58:19.127Z,70.96
2023-05-13T21:00:45.790Z,70.90
2023-05-13T21:03:12.384Z,71.72
2023-05-13T21:05:38.929Z,71.32
2023-05-13T21:08:05.495Z,72.03
2023-05-13T21:10:32.713Z,72.39
2023-05-13T21:12:59.217Z,72.17
2023-05-13T21:15:25.933Z,72.41
2023-05-13T21:17:52.634Z,73.12
2023-05-13T21:20:19.171Z,72.78
2023-05-13T21:22:45.658Z,73.22
2023-05-13T21:25:12.412Z,74.11
2023-05-13T21:27:39.384Z,74.18
2023-05-13T21:30:06.570Z,74.02
2023-05-13T21:32:33.231Z,73.68
2023-05-13T21:34:59.730Z,73.74
2023-05-13T21:37:26.581Z,73.70
2023-05-13T21:39:53.106Z,74.70
2023-05-13T21:42:19.569Z,73.92
2023-05-13T21:44:46.075Z,74.15
2023-05-13T21:47:12.517Z,74.68
2023-05-13T21:49:39.051Z,74.79
2023-05-13T21:52:05.954Z,75.30
2023-05-13T21:54:32.504Z,75.25
2023-05-13T21:56:58.971Z,75.74
2023-05-13T21:59:25.783Z,76.00
2023-05-13T22:01:52.301Z,76.14
2023-05-13T22:04:18.879Z,75.43
2023-05-13T22:06:45.526Z,75.54
2023-05-13T22:09:12.265Z,76.49
2023-05-13T22:11:38.824Z,76.51
2023-05-13T22:14:05.338Z,77.27
2023-05-13T22:16:31.902Z,77.02
2023-05-13T22:18:58.824Z,76.78
2023-05-13T22:21:25.662Z,76.93
2023-05-13T22:23:52.387Z,77.28
2023-05-13T22:26:18.888Z,77.96
2023-05-13T22:28:47.227Z,77.62
2023-05-13T22:31:13.746Z,77.72
2023-05-13T22:33:40.532Z,78.58
2023-05-13T22:36:07.115Z,78.39
2023-05-13T22:38:33.570Z,78.53
2023-05-13T22:41:00.647Z,78.44
2023-05-13T22:43:27.160Z,78.70
2023-05-13T22:45:53.603Z,78.85
2023-05-13T22:48:20.117Z,78.84
2023-05-13T22:50:47.126Z,79.21
2023-05-13T22:53:13.697Z,79.47
2023-05-13T22:55:40.147Z,79.08
2023-05-13T22:58:06.616Z,78.86
2023-05-13T23:00:33.066Z,79.07
2023-05-13T23:02:59.594Z,79.19
2023-05-13T23:05:26.383Z,78.85
2023-05-13T23:07:52.940Z,79.13
2023-05-13T23:10:19.473Z,79.21
2023-05-13T23:12:45.921Z,78.91
2023-05-13T23:15:14.336Z,79.38
2023-05-13T23:17:40.796Z,78.93
2023-05-13T23:20:07.890Z,79.39
2023-05-13T23:22:34.379Z,79.31
2023-05-13T23:25:00.987Z,79.53
2023-05-13T23:27:27.507Z,79.48
2023-05-13T23:29:53.953Z,79.55
2023-05-13T23:32:20.483Z,80.19
2023-05-13T23:34:46.945Z,80.13
2023-05-13T23:37:15.536Z,80.88
2023-05-13T23:39:42.155Z,80.44
2023-05-13T23:42:08.639Z,80.72
2023-05-13T23:44:35.267Z,80.55
2023-05-13T23:47:01.910Z,80.97
2023-05-13T23:49:28.345Z,80.94
2023-05-13T23:51:54.841Z,81.01
2023-05-13T23:54:21.343Z,81.67
2023-05-13T23:56:47.798Z,81.72
2023-05-13T23:59:14.287Z,81.91
